sensor_id;sensor_type;location;lat;lon;timestamp;pressure;altitude;pressure_sealevel;temperature;humidity
65010;BME280;51556;50.002;22.014;2023-02-20T00:00:34;99588.95;;;1.99;67.90
65010;BME280;51556;50.002;22.014;2023-02-20T00:03:01;99598.87;;;2.01;68.00
65010;BME280;51556;50.002;22.014;2023-02-20T00:05:26;99595.36;;;1.98;67.79
65010;BME280;51556;50.002;22.014;2023-02-20T00:07:52;99589.23;;;1.94;67.85
65010;BME280;51556;50.002;22.014;2023-02-20T00:10:18;99592.67;;;1.92;67.92
65010;BME280;51556;50.002;22.014;2023-02-20T00:12:43;99592.21;;;1.81;68.29
65010;BME280;51556;50.002;22.014;2023-02-20T00:15:12;99591.96;;;1.76;68.28
65010;BME280;51556;50.002;22.014;2023-02-20T00:17:38;99594.02;;;1.74;68.42
65010;BME280;51556;50.002;22.014;2023-02-20T00:20:04;99595.16;;;1.81;68.41
65010;BME280;51556;50.002;22.014;2023-02-20T00:22:29;99598.50;;;1.86;68.19
65010;BME280;51556;50.002;22.014;2023-02-20T00:24:55;99600.64;;;1.91;68.38
65010;BME280;51556;50.002;22.014;2023-02-20T00:27:20;99594.27;;;1.94;68.10
65010;BME280;51556;50.002;22.014;2023-02-20T00:29:46;99597.96;;;1.97;67.87
65010;BME280;51556;50.002;22.014;2023-02-20T00:32:11;99593.06;;;1.94;68.05
65010;BME280;51556;50.002;22.014;2023-02-20T00:34:37;99593.84;;;1.87;68.02
65010;BME280;51556;50.002;22.014;2023-02-20T00:37:03;99600.95;;;1.88;68.09
65010;BME280;51556;50.002;22.014;2023-02-20T00:39:28;99597.13;;;1.86;68.09
65010;BME280;51556;50.002;22.014;2023-02-20T00:41:55;99600.23;;;1.86;68.26
65010;BME280;51556;50.002;22.014;2023-02-20T00:44:21;99607.52;;;1.86;68.16
65010;BME280;51556;50.002;22.014;2023-02-20T00:46:47;99605.98;;;1.87;68.16
65010;BME280;51556;50.002;22.014;2023-02-20T00:49:12;99606.20;;;1.91;68.14
65010;BME280;51556;50.002;22.014;2023-02-20T00:51:38;99604.79;;;1.89;68.11
65010;BME280;51556;50.002;22.014;2023-02-20T00:54:03;99605.98;;;1.86;68.20
65010;BME280;51556;50.002;22.014;2023-02-20T00:56:29;99611.83;;;1.82;68.18
65010;BME280;51556;50.002;22.014;2023-02-20T00:58:54;99614.11;;;1.84;68.19
65010;BME280;51556;50.002;22.014;2023-02-20T01:01:20;99611.38;;;1.89;68.03
65010;BME280;51556;50.002;22.014;2023-02-20T01:03:46;99594.74;;;1.91;68.06
65010;BME280;51556;50.002;22.014;2023-02-20T01:06:11;99595.69;;;1.96;67.78
65010;BME280;51556;50.002;22.014;2023-02-20T01:08:37;99589.78;;;1.96;67.81
65010;BME280;51556;50.002;22.014;2023-02-20T01:11:02;99594.09;;;1.93;67.70
65010;BME280;51556;50.002;22.014;2023-02-20T01:13:28;99595.31;;;1.94;67.70
65010;BME280;51556;50.002;22.014;2023-02-20T01:15:53;99598.63;;;1.96;67.64
65010;BME280;51556;50.002;22.014;2023-02-20T01:18:18;99603.95;;;1.91;67.67
65010;BME280;51556;50.002;22.014;2023-02-20T01:20:44;99607.73;;;1.87;67.88
65010;BME280;51556;50.002;22.014;2023-02-20T01:23:10;99603.90;;;1.86;67.92
65010;BME280;51556;50.002;22.014;2023-02-20T01:25:35;99600.79;;;1.88;67.91
65010;BME280;51556;50.002;22.014;2023-02-20T01:28:01;99603.12;;;1.94;67.75
65010;BME280;51556;50.002;22.014;2023-02-20T01:30:27;99603.48;;;1.96;67.65
65010;BME280;51556;50.002;22.014;2023-02-20T01:32:52;99605.91;;;1.95;67.66
65010;BME280;51556;50.002;22.014;2023-02-20T01:35:18;99609.06;;;1.97;67.67
65010;BME280;51556;50.002;22.014;2023-02-20T01:37:43;99608.73;;;1.98;67.53
65010;BME280;51556;50.002;22.014;2023-02-20T01:40:15;99612.73;;;1.99;67.75
65010;BME280;51556;50.002;22.014;2023-02-20T01:42:40;99609.66;;;2.03;67.60
65010;BME280;51556;50.002;22.014;2023-02-20T01:47:56;99609.77;;;1.98;67.33
65010;BME280;51556;50.002;22.014;2023-02-20T01:50:41;99604.90;;;1.97;67.40
65010;BME280;51556;50.002;22.014;2023-02-20T01:53:11;99604.77;;;1.88;67.78
65010;BME280;51556;50.002;22.014;2023-02-20T01:55:54;99606.20;;;1.77;67.83
65010;BME280;51556;50.002;22.014;2023-02-20T01:58:42;99605.66;;;1.75;68.07
65010;BME280;51556;50.002;22.014;2023-02-20T02:01:08;99606.02;;;1.76;67.93
65010;BME280;51556;50.002;22.014;2023-02-20T02:03:36;99600.84;;;1.78;67.81
65010;BME280;51556;50.002;22.014;2023-02-20T02:06:06;99600.58;;;1.72;67.59
65010;BME280;51556;50.002;22.014;2023-02-20T02:08:33;99591.01;;;1.70;67.99
65010;BME280;51556;50.002;22.014;2023-02-20T02:11:15;99592.67;;;1.76;68.20
65010;BME280;51556;50.002;22.014;2023-02-20T02:13:42;99589.50;;;1.88;67.88
65010;BME280;51556;50.002;22.014;2023-02-20T02:22:12;99587.34;;;2.09;67.12
65010;BME280;51556;50.002;22.014;2023-02-20T02:27:35;99586.86;;;2.12;67.23
65010;BME280;51556;50.002;22.014;2023-02-20T02:41:00;99598.02;;;2.02;67.24
65010;BME280;51556;50.002;22.014;2023-02-20T02:46:07;99596.95;;;2.00;67.36
65010;BME280;51556;50.002;22.014;2023-02-20T02:48:43;99602.17;;;2.01;67.29
65010;BME280;51556;50.002;22.014;2023-02-20T02:51:15;99608.13;;;2.05;66.95
65010;BME280;51556;50.002;22.014;2023-02-20T02:56:35;99606.16;;;2.13;67.19
65010;BME280;51556;50.002;22.014;2023-02-20T02:59:02;99602.17;;;2.14;67.27
65010;BME280;51556;50.002;22.014;2023-02-20T03:01:30;99604.57;;;2.12;66.82
65010;BME280;51556;50.002;22.014;2023-02-20T03:03:57;99601.70;;;2.05;67.28
65010;BME280;51556;50.002;22.014;2023-02-20T03:06:27;99600.34;;;1.93;67.38
65010;BME280;51556;50.002;22.014;2023-02-20T03:09:02;99599.20;;;1.85;67.96
65010;BME280;51556;50.002;22.014;2023-02-20T03:11:31;99596.80;;;1.90;67.97
65010;BME280;51556;50.002;22.014;2023-02-20T03:14:08;99596.38;;;1.96;67.74
65010;BME280;51556;50.002;22.014;2023-02-20T03:19:52;99585.30;;;1.98;68.33
65010;BME280;51556;50.002;22.014;2023-02-20T03:25:21;99584.80;;;2.00;67.99
65010;BME280;51556;50.002;22.014;2023-02-20T03:28:04;99589.92;;;1.94;68.15
65010;BME280;51556;50.002;22.014;2023-02-20T03:30:37;99588.59;;;1.98;68.31
65010;BME280;51556;50.002;22.014;2023-02-20T03:33:11;99586.54;;;2.00;67.97
65010;BME280;51556;50.002;22.014;2023-02-20T03:35:56;99584.77;;;1.99;67.99
65010;BME280;51556;50.002;22.014;2023-02-20T03:38:46;99587.65;;;2.06;67.89
65010;BME280;51556;50.002;22.014;2023-02-20T03:41:32;99585.38;;;2.05;67.77
65010;BME280;51556;50.002;22.014;2023-02-20T03:44:19;99585.74;;;2.06;67.75
65010;BME280;51556;50.002;22.014;2023-02-20T03:46:47;99586.11;;;2.08;67.71
65010;BME280;51556;50.002;22.014;2023-02-20T03:49:19;99583.08;;;2.01;67.70
65010;BME280;51556;50.002;22.014;2023-02-20T03:51:45;99583.23;;;2.00;67.63
65010;BME280;51556;50.002;22.014;2023-02-20T03:54:32;99573.26;;;2.07;67.35
65010;BME280;51556;50.002;22.014;2023-02-20T03:57:03;99572.91;;;2.08;67.27
65010;BME280;51556;50.002;22.014;2023-02-20T03:59:41;99566.73;;;2.13;67.30
65010;BME280;51556;50.002;22.014;2023-02-20T04:02:20;99566.45;;;2.19;67.01
65010;BME280;51556;50.002;22.014;2023-02-20T04:04:49;99562.29;;;2.19;66.73
65010;BME280;51556;50.002;22.014;2023-02-20T04:07:26;99561.29;;;2.25;66.72
65010;BME280;51556;50.002;22.014;2023-02-20T04:09:57;99561.83;;;2.26;66.18
65010;BME280;51556;50.002;22.014;2023-02-20T04:12:30;99557.46;;;2.25;66.27
65010;BME280;51556;50.002;22.014;2023-02-20T04:14:57;99555.07;;;2.28;66.09
65010;BME280;51556;50.002;22.014;2023-02-20T04:17:33;99558.90;;;2.29;66.31
65010;BME280;51556;50.002;22.014;2023-02-20T04:20:02;99559.25;;;2.29;65.82
65010;BME280;51556;50.002;22.014;2023-02-20T04:22:32;99558.92;;;2.32;66.30
65010;BME280;51556;50.002;22.014;2023-02-20T04:25:27;99556.84;;;2.31;65.73
65010;BME280;51556;50.002;22.014;2023-02-20T04:27:49;99552.11;;;2.28;65.81
65010;BME280;51556;50.002;22.014;2023-02-20T04:30:15;99549.86;;;2.28;66.01
65010;BME280;51556;50.002;22.014;2023-02-20T04:32:40;99549.73;;;2.32;65.59
65010;BME280;51556;50.002;22.014;2023-02-20T04:35:06;99542.98;;;2.35;65.54
65010;BME280;51556;50.002;22.014;2023-02-20T04:37:33;99536.60;;;2.39;65.63
65010;BME280;51556;50.002;22.014;2023-02-20T04:39:58;99527.77;;;2.42;65.22
65010;BME280;51556;50.002;22.014;2023-02-20T04:42:23;99526.23;;;2.45;65.28
65010;BME280;51556;50.002;22.014;2023-02-20T04:44:49;99524.73;;;2.49;65.07
65010;BME280;51556;50.002;22.014;2023-02-20T04:47:16;99525.45;;;2.51;65.00
65010;BME280;51556;50.002;22.014;2023-02-20T04:49:42;99523.66;;;2.47;64.44
65010;BME280;51556;50.002;22.014;2023-02-20T04:52:08;99522.36;;;2.40;64.15
65010;BME280;51556;50.002;22.014;2023-02-20T04:54:33;99516.92;;;2.34;65.05
65010;BME280;51556;50.002;22.014;2023-02-20T04:56:58;99514.98;;;2.31;64.59
65010;BME280;51556;50.002;22.014;2023-02-20T04:59:24;99514.81;;;2.32;64.98
65010;BME280;51556;50.002;22.014;2023-02-20T05:01:50;99514.10;;;2.31;64.98
65010;BME280;51556;50.002;22.014;2023-02-20T05:04:18;99512.73;;;2.32;64.87
65010;BME280;51556;50.002;22.014;2023-02-20T05:06:47;99512.91;;;2.33;65.19
65010;BME280;51556;50.002;22.014;2023-02-20T05:09:13;99510.30;;;2.33;64.94
65010;BME280;51556;50.002;22.014;2023-02-20T05:11:39;99508.77;;;2.36;65.19
65010;BME280;51556;50.002;22.014;2023-02-20T05:14:05;99507.19;;;2.34;65.01
65010;BME280;51556;50.002;22.014;2023-02-20T05:16:30;99503.31;;;2.28;64.76
65010;BME280;51556;50.002;22.014;2023-02-20T05:18:56;99503.82;;;2.28;65.38
65010;BME280;51556;50.002;22.014;2023-02-20T05:21:22;99511.78;;;2.25;65.21
65010;BME280;51556;50.002;22.014;2023-02-20T05:24:06;99516.31;;;2.26;65.04
65010;BME280;51556;50.002;22.014;2023-02-20T05:26:31;99514.38;;;2.22;65.09
65010;BME280;51556;50.002;22.014;2023-02-20T05:28:56;99514.35;;;2.19;65.39
65010;BME280;51556;50.002;22.014;2023-02-20T05:31:22;99515.91;;;2.18;65.37
65010;BME280;51556;50.002;22.014;2023-02-20T05:33:47;99519.08;;;2.22;65.36
65010;BME280;51556;50.002;22.014;2023-02-20T05:36:13;99521.15;;;2.22;65.43
65010;BME280;51556;50.002;22.014;2023-02-20T05:38:38;99519.92;;;2.21;65.35
65010;BME280;51556;50.002;22.014;2023-02-20T05:41:05;99516.81;;;2.23;65.29
65010;BME280;51556;50.002;22.014;2023-02-20T05:43:31;99518.86;;;2.19;65.25
65010;BME280;51556;50.002;22.014;2023-02-20T05:45:56;99524.57;;;2.16;65.44
65010;BME280;51556;50.002;22.014;2023-02-20T05:48:21;99526.29;;;2.15;65.46
65010;BME280;51556;50.002;22.014;2023-02-20T05:50:47;99531.30;;;2.14;65.57
65010;BME280;51556;50.002;22.014;2023-02-20T05:53:15;99531.62;;;2.11;65.65
65010;BME280;51556;50.002;22.014;2023-02-20T05:55:40;99533.52;;;2.10;65.81
65010;BME280;51556;50.002;22.014;2023-02-20T05:58:06;99536.81;;;2.09;66.01
65010;BME280;51556;50.002;22.014;2023-02-20T06:00:32;99540.23;;;2.05;65.87
65010;BME280;51556;50.002;22.014;2023-02-20T06:02:57;99541.48;;;2.07;66.11
65010;BME280;51556;50.002;22.014;2023-02-20T06:05:23;99538.58;;;2.11;66.22
65010;BME280;51556;50.002;22.014;2023-02-20T06:07:50;99542.57;;;2.11;66.02
65010;BME280;51556;50.002;22.014;2023-02-20T06:10:18;99551.80;;;2.13;66.17
65010;BME280;51556;50.002;22.014;2023-02-20T06:12:44;99559.49;;;2.18;66.07
65010;BME280;51556;50.002;22.014;2023-02-20T06:15:09;99557.80;;;2.21;66.14
65010;BME280;51556;50.002;22.014;2023-02-20T06:17:34;99553.98;;;2.24;66.10
65010;BME280;51556;50.002;22.014;2023-02-20T06:20:00;99555.75;;;2.28;66.06
65010;BME280;51556;50.002;22.014;2023-02-20T06:22:25;99556.83;;;2.30;65.80
65010;BME280;51556;50.002;22.014;2023-02-20T06:24:50;99561.33;;;2.28;65.56
65010;BME280;51556;50.002;22.014;2023-02-20T06:27:16;99561.52;;;2.31;65.78
65010;BME280;51556;50.002;22.014;2023-02-20T06:29:42;99566.02;;;2.28;65.30
65010;BME280;51556;50.002;22.014;2023-02-20T06:32:07;99566.92;;;2.31;65.85
65010;BME280;51556;50.002;22.014;2023-02-20T06:34:33;99561.05;;;2.35;65.40
65010;BME280;51556;50.002;22.014;2023-02-20T06:37:00;99558.99;;;2.37;65.44
65010;BME280;51556;50.002;22.014;2023-02-20T06:39:28;99561.11;;;2.41;65.27
65010;BME280;51556;50.002;22.014;2023-02-20T06:41:54;99561.64;;;2.41;65.14
65010;BME280;51556;50.002;22.014;2023-02-20T06:44:20;99565.80;;;2.40;64.97
65010;BME280;51556;50.002;22.014;2023-02-20T06:46:45;99568.36;;;2.36;64.80
65010;BME280;51556;50.002;22.014;2023-02-20T06:49:11;99564.20;;;2.36;65.19
65010;BME280;51556;50.002;22.014;2023-02-20T06:51:36;99572.74;;;2.40;65.18
65010;BME280;51556;50.002;22.014;2023-02-20T06:54:04;99567.01;;;2.40;65.12
65010;BME280;51556;50.002;22.014;2023-02-20T06:56:31;99563.60;;;2.45;65.23
65010;BME280;51556;50.002;22.014;2023-02-20T06:58:58;99571.52;;;2.54;65.11
65010;BME280;51556;50.002;22.014;2023-02-20T07:01:26;99570.52;;;2.59;64.45
65010;BME280;51556;50.002;22.014;2023-02-20T07:03:52;99562.02;;;2.63;64.18
65010;BME280;51556;50.002;22.014;2023-02-20T07:06:20;99560.09;;;2.58;64.48
65010;BME280;51556;50.002;22.014;2023-02-20T07:08:45;99555.09;;;2.65;64.27
65010;BME280;51556;50.002;22.014;2023-02-20T07:11:11;99553.25;;;2.74;64.45
65010;BME280;51556;50.002;22.014;2023-02-20T07:13:37;99554.02;;;2.81;63.43
65010;BME280;51556;50.002;22.014;2023-02-20T07:16:03;99545.20;;;2.84;63.36
65010;BME280;51556;50.002;22.014;2023-02-20T07:18:28;99549.45;;;2.95;63.29
65010;BME280;51556;50.002;22.014;2023-02-20T07:24:26;99551.06;;;3.03;62.26
65010;BME280;51556;50.002;22.014;2023-02-20T07:26:53;99551.81;;;3.10;62.14
65010;BME280;51556;50.002;22.014;2023-02-20T07:29:18;99547.11;;;3.10;61.19
65010;BME280;51556;50.002;22.014;2023-02-20T07:31:44;99551.84;;;3.15;61.23
65010;BME280;51556;50.002;22.014;2023-02-20T07:34:09;99544.05;;;3.18;60.86
65010;BME280;51556;50.002;22.014;2023-02-20T07:36:35;99541.46;;;3.21;60.90
65010;BME280;51556;50.002;22.014;2023-02-20T07:39:02;99539.07;;;3.27;60.79
65010;BME280;51556;50.002;22.014;2023-02-20T07:41:29;99532.67;;;3.32;60.62
65010;BME280;51556;50.002;22.014;2023-02-20T07:44:01;99537.34;;;3.28;59.21
65010;BME280;51556;50.002;22.014;2023-02-20T07:46:27;99534.69;;;3.22;59.57
65010;BME280;51556;50.002;22.014;2023-02-20T07:48:52;99531.54;;;3.19;59.38
65010;BME280;51556;50.002;22.014;2023-02-20T07:51:18;99530.36;;;3.25;59.19
65010;BME280;51556;50.002;22.014;2023-02-20T07:53:48;99518.92;;;3.32;59.49
65010;BME280;51556;50.002;22.014;2023-02-20T07:56:14;99511.47;;;3.41;59.52
65010;BME280;51556;50.002;22.014;2023-02-20T07:58:40;99503.16;;;3.48;59.71
65010;BME280;51556;50.002;22.014;2023-02-20T08:01:05;99503.55;;;3.56;59.62
65010;BME280;51556;50.002;22.014;2023-02-20T08:03:30;99502.71;;;3.61;59.21
65010;BME280;51556;50.002;22.014;2023-02-20T08:05:56;99498.92;;;3.70;58.96
65010;BME280;51556;50.002;22.014;2023-02-20T08:08:21;99495.80;;;3.78;58.44
65010;BME280;51556;50.002;22.014;2023-02-20T08:10:49;99485.02;;;3.81;58.55
65010;BME280;51556;50.002;22.014;2023-02-20T08:13:14;99470.61;;;3.92;58.16
65010;BME280;51556;50.002;22.014;2023-02-20T08:15:40;99466.27;;;3.98;57.76
65010;BME280;51556;50.002;22.014;2023-02-20T08:18:06;99469.42;;;4.07;58.21
65010;BME280;51556;50.002;22.014;2023-02-20T08:20:31;99472.94;;;4.21;57.89
65010;BME280;51556;50.002;22.014;2023-02-20T08:22:56;99473.30;;;4.29;57.12
65010;BME280;51556;50.002;22.014;2023-02-20T08:25:24;99480.11;;;4.43;57.15
65010;BME280;51556;50.002;22.014;2023-02-20T08:27:50;99483.59;;;4.50;56.54
65010;BME280;51556;50.002;22.014;2023-02-20T08:30:22;99477.84;;;4.55;56.73
65010;BME280;51556;50.002;22.014;2023-02-20T08:32:53;99483.59;;;4.57;55.69
65010;BME280;51556;50.002;22.014;2023-02-20T08:35:19;99469.66;;;4.59;55.83
65010;BME280;51556;50.002;22.014;2023-02-20T08:37:45;99461.48;;;4.67;56.36
65010;BME280;51556;50.002;22.014;2023-02-20T08:40:12;99458.86;;;4.76;56.17
65010;BME280;51556;50.002;22.014;2023-02-20T08:42:38;99462.15;;;4.82;55.29
65010;BME280;51556;50.002;22.014;2023-02-20T08:45:04;99456.23;;;4.83;55.05
65010;BME280;51556;50.002;22.014;2023-02-20T08:47:31;99454.98;;;4.87;55.37
65010;BME280;51556;50.002;22.014;2023-02-20T08:49:56;99452.56;;;4.80;54.22
65010;BME280;51556;50.002;22.014;2023-02-20T08:52:22;99458.31;;;4.82;54.56
65010;BME280;51556;50.002;22.014;2023-02-20T08:54:47;99460.06;;;4.78;54.03
65010;BME280;51556;50.002;22.014;2023-02-20T08:57:14;99453.61;;;4.83;55.12
65010;BME280;51556;50.002;22.014;2023-02-20T08:59:40;99436.84;;;4.87;55.12
65010;BME280;51556;50.002;22.014;2023-02-20T09:02:08;99439.46;;;4.91;54.48
65010;BME280;51556;50.002;22.014;2023-02-20T09:04:42;99446.79;;;4.94;54.62
65010;BME280;51556;50.002;22.014;2023-02-20T09:07:07;99442.60;;;4.92;54.26
65010;BME280;51556;50.002;22.014;2023-02-20T09:09:32;99433.88;;;4.95;54.59
65010;BME280;51556;50.002;22.014;2023-02-20T09:11:58;99435.27;;;4.95;54.09
65010;BME280;51556;50.002;22.014;2023-02-20T09:14:23;99426.73;;;4.93;54.77
65010;BME280;51556;50.002;22.014;2023-02-20T09:16:51;99414.34;;;4.94;54.27
65010;BME280;51556;50.002;22.014;2023-02-20T09:19:16;99405.09;;;4.94;54.20
65010;BME280;51556;50.002;22.014;2023-02-20T09:21:45;99396.02;;;4.95;54.48
65010;BME280;51556;50.002;22.014;2023-02-20T09:24:10;99391.30;;;4.99;54.41
65010;BME280;51556;50.002;22.014;2023-02-20T09:26:36;99385.36;;;5.05;54.29
65010;BME280;51556;50.002;22.014;2023-02-20T09:29:01;99388.48;;;5.17;54.32
65010;BME280;51556;50.002;22.014;2023-02-20T09:31:26;99381.63;;;5.20;53.70
65010;BME280;51556;50.002;22.014;2023-02-20T09:33:52;99379.66;;;5.30;53.89
65010;BME280;51556;50.002;22.014;2023-02-20T09:36:17;99375.63;;;5.38;53.88
65010;BME280;51556;50.002;22.014;2023-02-20T09:38:43;99369.66;;;5.46;53.86
65010;BME280;51556;50.002;22.014;2023-02-20T09:41:40;99372.59;;;5.56;53.44
65010;BME280;51556;50.002;22.014;2023-02-20T09:44:13;99368.34;;;5.63;52.94
65010;BME280;51556;50.002;22.014;2023-02-20T09:46:43;99362.05;;;5.61;52.19
65010;BME280;51556;50.002;22.014;2023-02-20T09:51:42;99367.83;;;5.60;51.74
65010;BME280;51556;50.002;22.014;2023-02-20T09:54:17;99362.03;;;5.66;52.08
65010;BME280;51556;50.002;22.014;2023-02-20T09:56:51;99353.05;;;5.79;52.10
65010;BME280;51556;50.002;22.014;2023-02-20T09:59:28;99345.69;;;5.89;51.30
65010;BME280;51556;50.002;22.014;2023-02-20T10:02:01;99336.23;;;5.93;50.59
65010;BME280;51556;50.002;22.014;2023-02-20T10:04:39;99316.52;;;5.88;50.15
65010;BME280;51556;50.002;22.014;2023-02-20T10:09:38;99305.25;;;5.97;49.80
65010;BME280;51556;50.002;22.014;2023-02-20T10:12:26;99305.77;;;5.98;49.80
65010;BME280;51556;50.002;22.014;2023-02-20T10:25:45;99304.33;;;6.04;48.61
65010;BME280;51556;50.002;22.014;2023-02-20T10:28:17;99298.94;;;6.00;49.11
65010;BME280;51556;50.002;22.014;2023-02-20T10:30:54;99295.59;;;6.03;49.69
65010;BME280;51556;50.002;22.014;2023-02-20T10:33:41;99295.73;;;6.06;49.55
65010;BME280;51556;50.002;22.014;2023-02-20T10:36:14;99290.86;;;6.05;49.58
65010;BME280;51556;50.002;22.014;2023-02-20T10:38:54;99279.39;;;5.97;49.52
65010;BME280;51556;50.002;22.014;2023-02-20T10:44:00;99260.17;;;5.97;49.94
65010;BME280;51556;50.002;22.014;2023-02-20T10:46:32;99257.10;;;5.92;49.59
65010;BME280;51556;50.002;22.014;2023-02-20T10:49:01;99259.69;;;5.93;49.60
65010;BME280;51556;50.002;22.014;2023-02-20T10:51:45;99250.73;;;5.97;50.08
65010;BME280;51556;50.002;22.014;2023-02-20T10:54:17;99246.45;;;6.08;49.96
65010;BME280;51556;50.002;22.014;2023-02-20T10:56:51;99239.04;;;6.17;49.71
65010;BME280;51556;50.002;22.014;2023-02-20T10:59:49;99237.58;;;6.24;49.68
65010;BME280;51556;50.002;22.014;2023-02-20T11:02:21;99235.27;;;6.26;49.34
65010;BME280;51556;50.002;22.014;2023-02-20T11:04:49;99237.03;;;6.41;50.12
65010;BME280;51556;50.002;22.014;2023-02-20T11:07:16;99227.83;;;6.51;49.43
65010;BME280;51556;50.002;22.014;2023-02-20T11:09:46;99219.57;;;6.55;48.73
65010;BME280;51556;50.002;22.014;2023-02-20T11:12:30;99216.06;;;6.55;49.36
65010;BME280;51556;50.002;22.014;2023-02-20T11:15:00;99207.73;;;6.65;49.77
65010;BME280;51556;50.002;22.014;2023-02-20T11:17:30;99199.98;;;6.69;49.56
65010;BME280;51556;50.002;22.014;2023-02-20T11:19:58;99188.83;;;6.66;49.28
65010;BME280;51556;50.002;22.014;2023-02-20T11:27:38;99166.94;;;6.39;51.56
65010;BME280;51556;50.002;22.014;2023-02-20T11:30:21;99170.62;;;6.38;52.24
65010;BME280;51556;50.002;22.014;2023-02-20T11:32:49;99162.27;;;6.35;52.90
65010;BME280;51556;50.002;22.014;2023-02-20T11:35:26;99156.48;;;6.36;53.44
65010;BME280;51556;50.002;22.014;2023-02-20T11:38:17;99160.95;;;6.28;53.77
65010;BME280;51556;50.002;22.014;2023-02-20T11:40:46;99145.48;;;6.07;54.23
65010;BME280;51556;50.002;22.014;2023-02-20T11:45:38;99150.07;;;5.82;56.93
65010;BME280;51556;50.002;22.014;2023-02-20T11:48:10;99140.45;;;5.83;57.72
65010;BME280;51556;50.002;22.014;2023-02-20T11:50:46;99136.74;;;5.88;57.91
65010;BME280;51556;50.002;22.014;2023-02-20T11:53:20;99132.27;;;5.80;59.18
65010;BME280;51556;50.002;22.014;2023-02-20T11:55:47;99117.48;;;5.73;59.68
65010;BME280;51556;50.002;22.014;2023-02-20T11:58:22;99107.83;;;5.60;60.25
65010;BME280;51556;50.002;22.014;2023-02-20T12:00:50;99099.63;;;5.60;61.40
65010;BME280;51556;50.002;22.014;2023-02-20T12:03:22;99084.98;;;5.59;61.90
65010;BME280;51556;50.002;22.014;2023-02-20T12:05:49;99075.92;;;5.56;62.67
65010;BME280;51556;50.002;22.014;2023-02-20T12:13:40;99085.80;;;5.27;65.72
65010;BME280;51556;50.002;22.014;2023-02-20T12:26:54;99053.73;;;5.21;68.99
65010;BME280;51556;50.002;22.014;2023-02-20T12:29:41;99057.00;;;5.08;69.57
65010;BME280;51556;50.002;22.014;2023-02-20T12:32:19;99053.18;;;5.06;69.59
65010;BME280;51556;50.002;22.014;2023-02-20T12:37:32;99041.39;;;4.96;70.95
65010;BME280;51556;50.002;22.014;2023-02-20T12:48:27;99031.15;;;4.90;71.25
65010;BME280;51556;50.002;22.014;2023-02-20T12:51:13;99022.40;;;4.93;71.60
65010;BME280;51556;50.002;22.014;2023-02-20T12:53:56;99016.52;;;4.88;72.03
65010;BME280;51556;50.002;22.014;2023-02-20T13:01:29;98980.59;;;4.87;72.09
65010;BME280;51556;50.002;22.014;2023-02-20T13:04:22;98974.68;;;4.85;72.10
65010;BME280;51556;50.002;22.014;2023-02-20T13:07:02;98962.98;;;4.87;72.46
65010;BME280;51556;50.002;22.014;2023-02-20T13:09:38;98953.90;;;4.88;72.46
65010;BME280;51556;50.002;22.014;2023-02-20T13:12:12;98941.70;;;4.88;72.54
65010;BME280;51556;50.002;22.014;2023-02-20T13:15:03;98925.46;;;4.90;72.57
65010;BME280;51556;50.002;22.014;2023-02-20T13:20:29;98909.04;;;4.93;72.70
65010;BME280;51556;50.002;22.014;2023-02-20T13:25:46;98885.20;;;5.04;72.01
65010;BME280;51556;50.002;22.014;2023-02-20T13:30:38;98868.49;;;5.17;71.99
65010;BME280;51556;50.002;22.014;2023-02-20T13:35:50;98844.13;;;5.24;71.21
65010;BME280;51556;50.002;22.014;2023-02-20T13:38:18;98840.60;;;5.27;71.22
65010;BME280;51556;50.002;22.014;2023-02-20T13:48:40;98805.60;;;5.35;70.20
65010;BME280;51556;50.002;22.014;2023-02-20T13:54:02;98763.19;;;5.49;69.94
65010;BME280;51556;50.002;22.014;2023-02-20T13:59:12;98726.27;;;5.63;69.83
65010;BME280;51556;50.002;22.014;2023-02-20T14:02:01;98736.17;;;5.67;69.52
65010;BME280;51556;50.002;22.014;2023-02-20T14:04:26;98741.77;;;5.66;69.22
65010;BME280;51556;50.002;22.014;2023-02-20T14:06:54;98734.25;;;5.67;69.16
65010;BME280;51556;50.002;22.014;2023-02-20T14:09:26;98719.14;;;5.73;69.16
65010;BME280;51556;50.002;22.014;2023-02-20T14:12:02;98714.73;;;5.77;69.02
65010;BME280;51556;50.002;22.014;2023-02-20T14:14:33;98702.08;;;5.80;68.67
65010;BME280;51556;50.002;22.014;2023-02-20T14:20:44;98721.45;;;5.82;68.45
65010;BME280;51556;50.002;22.014;2023-02-20T14:25:59;98711.98;;;5.74;67.82
65010;BME280;51556;50.002;22.014;2023-02-20T14:28:26;98703.55;;;5.65;68.06
65010;BME280;51556;50.002;22.014;2023-02-20T14:31:09;98686.82;;;5.63;68.41
65010;BME280;51556;50.002;22.014;2023-02-20T14:33:42;98673.19;;;5.64;67.99
65010;BME280;51556;50.002;22.014;2023-02-20T14:36:19;98682.45;;;5.63;68.21
65010;BME280;51556;50.002;22.014;2023-02-20T14:41:50;98690.85;;;5.63;67.26
65010;BME280;51556;50.002;22.014;2023-02-20T14:44:16;98683.83;;;5.65;66.88
65010;BME280;51556;50.002;22.014;2023-02-20T14:46:43;98672.70;;;5.62;66.80
65010;BME280;51556;50.002;22.014;2023-02-20T14:49:15;98674.78;;;5.62;67.40
65010;BME280;51556;50.002;22.014;2023-02-20T14:51:40;98621.17;;;5.63;67.34
65010;BME280;51556;50.002;22.014;2023-02-20T14:57:21;98583.61;;;5.65;67.21
65010;BME280;51556;50.002;22.014;2023-02-20T14:59:46;98579.91;;;5.66;67.02
65010;BME280;51556;50.002;22.014;2023-02-20T15:02:29;98572.77;;;5.65;66.58
65010;BME280;51556;50.002;22.014;2023-02-20T15:07:26;98599.79;;;5.68;66.40
65010;BME280;51556;50.002;22.014;2023-02-20T15:09:57;98592.34;;;5.75;66.37
65010;BME280;51556;50.002;22.014;2023-02-20T15:12:31;98578.63;;;5.79;66.00
65010;BME280;51556;50.002;22.014;2023-02-20T15:15:01;98572.99;;;5.82;65.90
65010;BME280;51556;50.002;22.014;2023-02-20T15:17:34;98577.52;;;5.83;65.53
65010;BME280;51556;50.002;22.014;2023-02-20T15:20:00;98583.27;;;5.84;65.59
65010;BME280;51556;50.002;22.014;2023-02-20T15:22:34;98556.88;;;5.85;65.43
65010;BME280;51556;50.002;22.014;2023-02-20T15:25:26;98551.27;;;5.85;65.00
65010;BME280;51556;50.002;22.014;2023-02-20T15:33:35;98543.20;;;5.88;64.96